createdAt,value
2018-05-07T00:00:59.713Z,17.70
2018-05-07T00:01:59.796Z,17.70
2018-05-07T00:02:59.711Z,18.60
2018-05-07T00:03:59.752Z,17.90
2018-05-07T00:04:59.755Z,19.10
2018-05-07T00:05:59.808Z,23.10
2018-05-07T00:06:59.897Z,18.60
2018-05-07T00:07:59.787Z,21.90
2018-05-07T00:08:59.829Z,24.70
2018-05-07T00:09:59.825Z,17.30
2018-05-07T00:10:59.856Z,15.90
2018-05-07T00:11:59.947Z,18.90
2018-05-07T00:12:59.863Z,17.70
2018-05-07T00:13:59.900Z,18.70
2018-05-07T00:14:59.889Z,17.20
2018-05-07T00:15:59.945Z,17.10
2018-05-07T00:17:00.020Z,15.80
2018-05-07T00:17:59.937Z,20.60
2018-05-07T00:18:59.962Z,17.80
2018-05-07T00:19:59.965Z,16.10
2018-05-07T00:20:59.991Z,15.20
2018-05-07T00:22:00.115Z,15.70
2018-05-07T00:23:00.039Z,16.30
2018-05-07T00:24:00.032Z,18.20
2018-05-07T00:25:00.052Z,17.00
2018-05-07T00:26:00.064Z,18.20
2018-05-07T00:27:00.193Z,19.50
2018-05-07T00:28:00.092Z,19.30
2018-05-07T00:29:00.139Z,21.20
2018-05-07T00:30:00.124Z,19.40
2018-05-07T00:31:00.146Z,18.50
2018-05-07T00:32:00.279Z,19.30
2018-05-07T00:33:00.195Z,20.70
2018-05-07T00:34:00.184Z,15.70
2018-05-07T00:35:00.231Z,13.90
2018-05-07T00:36:00.215Z,18.10
2018-05-07T00:37:00.358Z,18.10
2018-05-07T00:38:00.243Z,16.30
2018-05-07T00:39:00.254Z,18.00
2018-05-07T00:40:00.282Z,17.40
2018-05-07T00:41:00.301Z,16.00
2018-05-07T00:42:00.405Z,16.20
2018-05-07T00:43:00.321Z,17.70
2018-05-07T00:44:00.343Z,16.60
2018-05-07T00:45:00.365Z,17.40
2018-05-07T00:46:00.394Z,15.90
2018-05-07T00:47:00.510Z,13.40
2018-05-07T00:48:00.406Z,15.40
2018-05-07T00:49:00.411Z,16.80
2018-05-07T00:50:00.460Z,14.10
2018-05-07T00:51:00.444Z,17.80
2018-05-07T00:52:00.591Z,17.40
2018-05-07T00:53:00.476Z,18.50
2018-05-07T00:54:00.520Z,16.30
2018-05-07T00:55:00.532Z,15.40
2018-05-07T00:56:00.520Z,15.20
2018-05-07T00:57:00.664Z,16.10
2018-05-07T00:58:00.558Z,14.90
2018-05-07T00:59:00.567Z,17.30
2018-05-07T01:00:00.595Z,14.70
2018-05-07T01:01:00.608Z,16.50
2018-05-07T01:02:00.733Z,16.70
2018-05-07T01:03:00.652Z,17.90
2018-05-07T01:04:00.647Z,18.10
2018-05-07T01:05:00.688Z,20.00
2018-05-07T01:06:00.678Z,18.00
2018-05-07T01:07:00.801Z,19.30
2018-05-07T01:08:00.704Z,15.40
2018-05-07T01:09:00.764Z,17.00
2018-05-07T01:10:00.738Z,17.10
2018-05-07T01:11:00.768Z,16.60
2018-05-07T01:12:00.895Z,19.90
2018-05-07T01:13:00.812Z,18.20
2018-05-07T01:14:00.798Z,17.80
2018-05-07T01:15:00.841Z,17.30
2018-05-07T01:16:00.848Z,14.40
2018-05-07T01:17:00.946Z,16.10
2018-05-07T01:18:00.890Z,15.30
2018-05-07T01:19:00.882Z,15.10
2018-05-07T01:20:00.922Z,16.10
2018-05-07T01:21:00.933Z,14.30
2018-05-07T01:22:01.029Z,13.40
2018-05-07T01:23:00.962Z,15.30
2018-05-07T01:24:00.953Z,14.10
2018-05-07T01:25:00.972Z,14.70
2018-05-07T01:26:01.010Z,13.30
2018-05-07T01:27:01.099Z,11.30
2018-05-07T01:28:01.042Z,12.30
2018-05-07T01:29:01.034Z,12.20
2018-05-07T01:30:01.063Z,15.10
2018-05-07T01:31:01.095Z,16.10
2018-05-07T01:32:01.101Z,12.60
2018-05-07T01:33:01.237Z,14.50
2018-05-07T01:34:01.139Z,12.30
2018-05-07T01:35:01.129Z,12.80
2018-05-07T01:36:01.162Z,14.50
2018-05-07T01:37:01.179Z,12.40
2018-05-07T01:38:01.304Z,14.10
2018-05-07T01:39:01.192Z,13.40
2018-05-07T01:40:01.200Z,16.00
2018-05-07T01:41:01.223Z,15.10
2018-05-07T01:42:01.259Z,16.30
2018-05-07T01:43:01.380Z,15.70
2018-05-07T01:44:01.287Z,16.20
2018-05-07T01:45:01.278Z,15.50
2018-05-07T01:46:01.301Z,17.00
2018-05-07T01:47:01.320Z,16.80
2018-05-07T01:48:01.451Z,17.10
2018-05-07T01:49:01.340Z,18.40
2018-05-07T01:50:01.386Z,15.00
2018-05-07T01:51:01.401Z,17.10
2018-05-07T01:52:01.396Z,19.60
2018-05-07T01:53:01.527Z,19.60
2018-05-07T01:54:01.446Z,30.40
2018-05-07T01:55:01.436Z,20.90
2018-05-07T01:56:01.452Z,19.20
2018-05-07T01:57:01.491Z,17.20
2018-05-07T01:58:01.646Z,18.60
2018-05-07T01:59:01.523Z,23.00
2018-05-07T02:00:01.540Z,19.80
2018-05-07T02:01:01.557Z,21.40
2018-05-07T02:02:01.547Z,26.60
2018-05-07T02:03:01.691Z,28.20
2018-05-07T02:04:01.584Z,27.90
2018-05-07T02:05:01.588Z,24.40
2018-05-07T02:06:01.621Z,32.30
2018-05-07T02:07:01.616Z,27.60
2018-05-07T02:08:01.811Z,30.90
2018-05-07T02:09:01.677Z,22.80
2018-05-07T02:10:01.698Z,15.20
2018-05-07T02:11:01.711Z,15.00
2018-05-07T02:12:01.705Z,15.00
2018-05-07T02:13:01.843Z,14.50
2018-05-07T02:14:01.743Z,15.40
2018-05-07T02:15:01.771Z,19.60
2018-05-07T02:16:01.764Z,20.80
2018-05-07T02:17:01.778Z,17.80
2018-05-07T02:18:01.920Z,19.10
2018-05-07T02:19:01.834Z,16.80
2018-05-07T02:20:01.829Z,29.60
2018-05-07T02:21:01.837Z,21.60
2018-05-07T02:22:01.856Z,17.70
2018-05-07T02:23:01.994Z,15.30
2018-05-07T02:24:01.910Z,15.90
2018-05-07T02:25:01.908Z,15.40
2018-05-07T02:26:01.915Z,12.70
2018-05-07T02:27:01.931Z,15.40
2018-05-07T02:28:02.059Z,16.60
2018-05-07T02:29:01.965Z,14.70
2018-05-07T02:30:01.977Z,15.90
2018-05-07T02:31:01.991Z,15.80
2018-05-07T02:32:02.034Z,15.50
2018-05-07T02:33:02.213Z,14.70
2018-05-07T02:34:02.038Z,13.90
2018-05-07T02:35:02.080Z,16.90
2018-05-07T02:36:02.077Z,13.10
2018-05-07T02:37:02.085Z,16.30
2018-05-07T02:38:02.574Z,20.20
2018-05-07T02:39:02.144Z,17.50
2018-05-07T02:40:02.149Z,13.60
2018-05-07T02:41:02.172Z,16.70
2018-05-07T02:42:02.170Z,13.40
2018-05-07T02:43:02.276Z,15.90
2018-05-07T02:44:02.205Z,16.40
2018-05-07T02:45:02.208Z,22.30
2018-05-07T02:46:02.231Z,21.90
2018-05-07T02:47:02.259Z,17.80
2018-05-07T02:48:02.367Z,24.20
2018-05-07T02:49:02.270Z,21.50
2018-05-07T02:50:02.296Z,17.20
2018-05-07T02:51:02.324Z,16.50
2018-05-07T02:52:02.319Z,17.60
2018-05-07T02:53:02.445Z,15.40
2018-05-07T02:54:02.352Z,16.50
2018-05-07T02:55:02.384Z,13.80
2018-05-07T02:56:02.368Z,17.60
2018-05-07T02:57:02.393Z,14.70
2018-05-07T02:58:02.538Z,18.00
2018-05-07T02:59:02.419Z,15.60
2018-05-07T03:00:02.435Z,16.30
2018-05-07T03:01:02.447Z,15.50
2018-05-07T03:02:02.473Z,13.50
2018-05-07T03:03:02.579Z,16.10
2018-05-07T03:04:02.497Z,15.20
2018-05-07T03:05:02.606Z,14.20
2018-05-07T03:06:02.552Z,15.70
2018-05-07T03:07:02.536Z,16.70
2018-05-07T03:08:02.705Z,16.60
2018-05-07T03:09:02.568Z,14.50
2018-05-07T03:10:02.611Z,14.00
2018-05-07T03:11:02.600Z,17.10
2018-05-07T03:12:02.701Z,16.70
2018-05-07T03:13:02.772Z,18.80
2018-05-07T03:14:02.642Z,15.30
2018-05-07T03:15:02.691Z,17.60
2018-05-07T03:16:02.703Z,21.60
2018-05-07T03:17:02.717Z,16.20
2018-05-07T03:18:02.830Z,17.20
2018-05-07T03:19:02.735Z,16.60
2018-05-07T03:20:02.745Z,18.00
2018-05-07T03:21:02.748Z,17.60
2018-05-07T03:22:02.784Z,16.60
2018-05-07T03:23:02.908Z,17.70
2018-05-07T03:24:02.823Z,15.30
2018-05-07T03:25:02.844Z,17.50
2018-05-07T03:26:02.825Z,18.40
2018-05-07T03:27:02.843Z,19.90
2018-05-07T03:28:02.957Z,20.70
2018-05-07T03:29:02.910Z,18.80
2018-05-07T03:30:02.901Z,25.70
2018-05-07T03:31:02.903Z,22.30
2018-05-07T03:32:02.957Z,26.30
2018-05-07T03:33:03.110Z,23.80
2018-05-07T03:34:02.947Z,24.90
2018-05-07T03:35:02.962Z,23.50
2018-05-07T03:36:02.979Z,22.10
2018-05-07T03:37:02.991Z,21.50
2018-05-07T03:38:03.001Z,22.80
2018-05-07T03:39:03.124Z,18.70
2018-05-07T03:40:03.039Z,24.20
2018-05-07T03:41:03.056Z,22.60
2018-05-07T03:42:03.095Z,22.20
2018-05-07T03:43:03.110Z,22.50
2018-05-07T03:44:03.226Z,22.60
2018-05-07T03:45:03.123Z,21.50
2018-05-07T03:46:03.156Z,24.60
2018-05-07T03:47:03.146Z,26.50
2018-05-07T03:48:03.159Z,25.50
2018-05-07T03:49:03.350Z,26.40
2018-05-07T03:50:03.212Z,23.30
2018-05-07T03:51:03.202Z,28.40
2018-05-07T03:52:03.220Z,27.30
2018-05-07T03:53:03.258Z,27.00
2018-05-07T03:54:03.360Z,30.50
2018-05-07T03:55:03.267Z,30.20
2018-05-07T03:56:03.324Z,29.40
2018-05-07T03:57:03.320Z,31.90
2018-05-07T03:58:03.315Z,37.70
2018-05-07T03:59:03.429Z,36.80
2018-05-07T04:00:03.343Z,37.10
2018-05-07T04:01:03.366Z,33.00
2018-05-07T04:02:03.384Z,29.00
2018-05-07T04:03:03.405Z,30.50
2018-05-07T04:04:03.510Z,33.60
2018-05-07T04:05:03.418Z,30.90
2018-05-07T04:06:03.433Z,28.50
2018-05-07T04:07:03.448Z,32.10
2018-05-07T04:08:03.470Z,29.00
2018-05-07T04:09:03.583Z,29.50
2018-05-07T04:10:03.494Z,28.80
2018-05-07T04:11:03.510Z,28.60
2018-05-07T04:12:03.521Z,33.40
2018-05-07T04:13:03.548Z,32.60
2018-05-07T04:14:03.659Z,28.60
2018-05-07T04:15:03.566Z,29.00
2018-05-07T04:16:03.597Z,29.60
2018-05-07T04:17:03.597Z,30.30
2018-05-07T04:18:03.637Z,29.00
2018-05-07T04:19:03.757Z,27.60
2018-05-07T04:20:03.641Z,29.80
2018-05-07T04:21:03.683Z,25.70
2018-05-07T04:22:03.679Z,27.30
2018-05-07T04:23:03.714Z,24.80
2018-05-07T04:24:03.808Z,25.60
2018-05-07T04:25:03.721Z,27.20
2018-05-07T04:26:03.762Z,26.40
2018-05-07T04:27:03.749Z,29.20
2018-05-07T04:28:03.767Z,28.30
2018-05-07T04:29:03.784Z,29.50
2018-05-07T04:30:03.978Z,31.10
2018-05-07T04:31:03.832Z,31.40
2018-05-07T04:32:03.852Z,31.30
2018-05-07T04:33:03.836Z,31.90
2018-05-07T04:34:03.855Z,32.00
2018-05-07T04:35:03.976Z,25.80
2018-05-07T04:36:03.880Z,29.50
2018-05-07T04:37:03.924Z,33.00
2018-05-07T04:38:03.927Z,34.50
2018-05-07T04:39:03.929Z,35.70
2018-05-07T04:40:04.049Z,30.90
2018-05-07T04:41:03.960Z,39.20
2018-05-07T04:42:03.975Z,35.20
2018-05-07T04:43:04.020Z,38.80
2018-05-07T04:44:04.001Z,41.10
2018-05-07T04:45:04.022Z,37.10
2018-05-07T04:46:04.214Z,43.10
2018-05-07T04:47:04.053Z,36.10
2018-05-07T04:48:04.065Z,33.90
2018-05-07T04:49:04.105Z,32.70
2018-05-07T04:50:04.095Z,30.50
2018-05-07T04:51:04.229Z,31.80
2018-05-07T04:52:04.154Z,34.20
2018-05-07T04:53:04.156Z,34.60
2018-05-07T04:54:04.181Z,28.90
2018-05-07T04:55:04.256Z,30.70
2018-05-07T04:56:04.288Z,33.70
2018-05-07T04:57:04.202Z,33.90
2018-05-07T04:58:04.248Z,39.10
2018-05-07T04:59:04.257Z,29.20
2018-05-07T05:00:04.253Z,33.00
2018-05-07T05:01:04.365Z,27.80
2018-05-07T05:02:04.273Z,29.10
2018-05-07T05:03:04.302Z,30.40
2018-05-07T05:04:04.357Z,34.40
2018-05-07T05:05:04.348Z,35.50
2018-05-07T05:06:04.438Z,29.10
2018-05-07T05:07:04.361Z,30.90
2018-05-07T05:08:04.377Z,33.80
2018-05-07T05:09:04.394Z,31.80
2018-05-07T05:10:04.803Z,29.80
2018-05-07T05:11:04.509Z,35.40
2018-05-07T05:12:04.453Z,26.80
2018-05-07T05:13:04.442Z,30.10
2018-05-07T05:14:04.480Z,29.70
2018-05-07T05:15:04.467Z,25.90
2018-05-07T05:16:04.614Z,27.70
2018-05-07T05:17:04.503Z,27.60
2018-05-07T05:18:04.515Z,28.10
2018-05-07T05:19:04.558Z,33.70
2018-05-07T05:20:04.555Z,28.60
2018-05-07T05:21:04.748Z,28.70
2018-05-07T05:22:04.576Z,29.30
2018-05-07T05:23:04.596Z,27.40
2018-05-07T05:24:04.605Z,26.10
2018-05-07T05:25:04.645Z,24.70
2018-05-07T05:26:04.763Z,26.80
2018-05-07T05:27:04.649Z,26.20
2018-05-07T05:28:04.673Z,23.80
2018-05-07T05:29:04.713Z,24.60
2018-05-07T05:30:04.721Z,26.10
2018-05-07T05:31:04.808Z,25.70
2018-05-07T05:32:04.731Z,23.80
2018-05-07T05:33:04.770Z,26.00
2018-05-07T05:34:04.803Z,25.60
2018-05-07T05:35:04.776Z,24.80
2018-05-07T05:36:04.934Z,26.40
2018-05-07T05:37:04.803Z,25.00
2018-05-07T05:38:04.814Z,24.90
2018-05-07T05:39:04.853Z,24.60
2018-05-07T05:40:04.871Z,26.80
2018-05-07T05:41:04.959Z,29.70
2018-05-07T05:42:04.879Z,25.20
2018-05-07T05:43:04.888Z,25.50
2018-05-07T05:44:04.935Z,25.80
2018-05-07T05:45:04.923Z,25.30
2018-05-07T05:46:05.084Z,25.50
2018-05-07T05:47:04.953Z,29.00
2018-05-07T05:48:04.993Z,29.40
2018-05-07T05:49:04.984Z,24.40
2018-05-07T05:50:05.072Z,27.40
2018-05-07T05:51:05.038Z,27.50
2018-05-07T05:52:05.157Z,29.50
2018-05-07T05:53:05.040Z,28.60
2018-05-07T05:54:05.055Z,26.20
2018-05-07T05:55:05.071Z,32.80
2018-05-07T05:56:05.108Z,30.30
2018-05-07T05:57:05.210Z,31.10
2018-05-07T05:58:05.116Z,32.40
2018-05-07T05:59:05.133Z,35.30
2018-05-07T06:00:05.169Z,31.60
2018-05-07T06:01:05.157Z,31.60
2018-05-07T06:02:05.271Z,31.70
2018-05-07T06:03:05.185Z,31.90
2018-05-07T06:04:05.312Z,38.50
2018-05-07T06:05:05.245Z,34.80
2018-05-07T06:06:05.248Z,31.80
2018-05-07T06:07:05.374Z,35.80
2018-05-07T06:08:05.276Z,34.80
2018-05-07T06:09:05.390Z,42.10
2018-05-07T06:10:05.301Z,39.00
2018-05-07T06:11:05.331Z,40.50
2018-05-07T06:12:05.443Z,42.10
2018-05-07T06:13:05.362Z,41.40
2018-05-07T06:14:05.344Z,44.80
2018-05-07T06:15:05.374Z,43.00
2018-05-07T06:16:05.406Z,40.70
2018-05-07T06:17:05.496Z,41.50
2018-05-07T06:18:05.437Z,38.70
2018-05-07T06:19:05.420Z,44.40
2018-05-07T06:20:05.444Z,41.20
2018-05-07T06:21:05.447Z,45.30
2018-05-07T06:22:05.596Z,41.20
2018-05-07T06:23:05.508Z,43.60
2018-05-07T06:24:05.522Z,42.40
2018-05-07T06:25:05.536Z,44.00
2018-05-07T06:26:05.529Z,44.10
2018-05-07T06:27:05.666Z,43.80
2018-05-07T06:28:05.558Z,40.30
2018-05-07T06:29:05.570Z,41.70
2018-05-07T06:30:05.584Z,43.20
2018-05-07T06:31:05.613Z,45.70
2018-05-07T06:32:05.715Z,48.80
2018-05-07T06:33:05.646Z,43.80
2018-05-07T06:34:05.667Z,45.60
2018-05-07T06:35:05.686Z,44.20
2018-05-07T06:36:05.681Z,47.80
2018-05-07T06:37:05.827Z,49.10
2018-05-07T06:38:05.717Z,47.80
2018-05-07T06:39:05.730Z,52.10
2018-05-07T06:40:05.734Z,56.70
2018-05-07T06:41:05.750Z,51.30
2018-05-07T06:42:05.879Z,51.90
2018-05-07T06:43:05.790Z,54.20
2018-05-07T06:44:05.816Z,53.40
2018-05-07T06:45:05.805Z,39.40
2018-05-07T06:46:05.850Z,47.00
2018-05-07T06:47:05.940Z,40.40
2018-05-07T06:48:05.852Z,47.10
2018-05-07T06:49:05.893Z,44.30
2018-05-07T06:50:05.916Z,38.70
2018-05-07T06:51:05.924Z,38.10
2018-05-07T06:52:06.070Z,40.10
2018-05-07T06:53:05.955Z,41.80
2018-05-07T06:54:05.943Z,39.10
2018-05-07T06:55:05.951Z,40.00
2018-05-07T06:56:06.058Z,43.10
2018-05-07T06:57:06.066Z,41.30
2018-05-07T06:58:06.180Z,41.20
2018-05-07T06:59:06.095Z,42.50
2018-05-07T07:00:06.083Z,39.40
2018-05-07T07:01:06.100Z,38.50
2018-05-07T07:02:06.096Z,39.30
2018-05-07T11:04:28.943Z,15.00
2018-05-07T11:05:28.858Z,12.20
2018-05-07T11:06:28.881Z,13.90
2018-05-07T11:07:28.975Z,12.20
2018-05-07T11:08:28.877Z,11.60
2018-05-07T11:09:29.002Z,13.30
2018-05-07T11:10:28.921Z,13.50
2018-05-07T11:11:28.959Z,15.10
2018-05-07T11:12:28.970Z,14.70
2018-05-07T11:13:28.998Z,15.00
2018-05-07T11:14:29.105Z,15.80
2018-05-07T11:15:28.995Z,18.50
2018-05-07T11:16:29.010Z,19.60
2018-05-07T11:17:29.054Z,15.40
2018-05-07T11:18:29.044Z,13.00
2018-05-07T11:19:29.205Z,14.10
2018-05-07T11:20:29.076Z,12.10
2018-05-07T11:21:29.110Z,15.30
2018-05-07T11:22:29.142Z,16.80
2018-05-07T11:23:29.127Z,17.40
2018-05-07T11:24:29.258Z,15.10
2018-05-07T11:25:29.163Z,16.20
2018-05-07T11:26:29.183Z,20.50
2018-05-07T11:27:29.193Z,21.20
2018-05-07T11:28:29.209Z,17.80
2018-05-07T11:29:29.385Z,24.40
2018-05-07T11:30:29.262Z,20.10
2018-05-07T11:31:29.283Z,20.00
2018-05-07T11:32:29.279Z,17.50
2018-05-07T11:33:29.294Z,14.70
2018-05-07T11:34:29.459Z,11.60
2018-05-07T11:35:29.325Z,14.20
2018-05-07T11:36:29.335Z,11.40
2018-05-07T11:37:29.354Z,13.30
2018-05-07T11:38:29.400Z,12.20
2018-05-07T11:39:29.501Z,11.80
2018-05-07T11:40:29.421Z,13.40
2018-05-07T11:41:29.417Z,10.90
2018-05-07T11:42:29.449Z,8.40
2018-05-07T11:43:29.484Z,8.50
2018-05-07T11:44:29.629Z,8.10
2018-05-07T11:45:29.517Z,7.10
2018-05-07T11:46:29.501Z,8.30
2018-05-07T11:47:29.663Z,8.30
2018-05-07T11:48:29.561Z,7.90
2018-05-07T11:49:29.721Z,9.60
2018-05-07T11:50:29.573Z,11.20
2018-05-07T11:51:29.608Z,7.10
2018-05-07T11:52:29.592Z,6.30
2018-05-07T11:53:29.615Z,8.80
2018-05-07T11:54:29.779Z,9.40
2018-05-07T11:55:29.645Z,10.70
2018-05-07T11:56:29.686Z,14.10
2018-05-07T11:57:29.677Z,11.00
2018-05-07T11:58:29.692Z,9.70
2018-05-07T11:59:29.913Z,7.90
2018-05-07T12:00:29.729Z,8.20
2018-05-07T12:01:29.761Z,8.30
2018-05-07T12:02:29.853Z,6.60
2018-05-07T12:03:29.782Z,7.00
2018-05-07T12:04:29.826Z,6.40
2018-05-07T12:05:29.915Z,6.90
2018-05-07T12:06:29.849Z,6.00
2018-05-07T12:07:29.857Z,5.50
2018-05-07T12:08:29.881Z,6.00
2018-05-07T12:09:29.894Z,7.90
2018-05-07T12:10:30.015Z,5.00
2018-05-07T12:11:29.909Z,5.30
2018-05-07T12:12:29.935Z,5.50
2018-05-07T12:13:29.965Z,7.00
2018-05-07T12:14:29.970Z,4.50
2018-05-07T12:15:30.071Z,6.50
2018-05-07T12:16:30.019Z,6.20
2018-05-07T12:17:30.008Z,7.20
2018-05-07T12:18:30.059Z,7.30
2018-05-07T12:19:30.120Z,7.60
2018-05-07T12:20:30.187Z,9.00
2018-05-07T12:21:30.071Z,7.50
2018-05-07T12:22:30.103Z,5.50
2018-05-07T12:23:30.139Z,6.10
2018-05-07T12:24:30.214Z,6.60
2018-05-07T12:25:30.251Z,6.60
2018-05-07T12:26:30.185Z,6.40
2018-05-07T12:27:30.205Z,5.60
2018-05-07T12:28:30.219Z,11.10
2018-05-07T12:29:30.224Z,10.80
2018-05-07T12:30:30.354Z,10.40
2018-05-07T12:31:30.397Z,17.70
2018-05-07T12:32:30.290Z,14.40
2018-05-07T12:33:30.284Z,8.30
2018-05-07T12:34:30.314Z,10.00
2018-05-07T12:35:30.418Z,8.80
2018-05-07T12:36:30.361Z,6.50
2018-05-07T12:37:30.350Z,7.30
2018-05-07T12:38:30.394Z,6.80
2018-05-07T12:39:30.415Z,7.70
2018-05-07T12:40:30.495Z,10.00
2018-05-07T12:41:30.444Z,8.60
2018-05-07T12:42:30.463Z,9.20
2018-05-07T12:43:30.451Z,10.30
2018-05-07T12:44:30.515Z,7.30
2018-05-07T12:45:30.632Z,6.50
2018-05-07T12:46:30.529Z,9.00
2018-05-07T12:47:30.529Z,7.00
2018-05-07T12:48:30.565Z,6.80
2018-05-07T12:49:30.733Z,8.10
2018-05-07T12:50:30.669Z,8.10
2018-05-07T12:51:30.594Z,9.70
2018-05-07T12:52:30.696Z,7.30
2018-05-07T12:53:30.639Z,8.80
2018-05-07T12:54:30.683Z,12.40
2018-05-07T12:55:30.755Z,9.90
2018-05-07T12:56:30.677Z,10.90
2018-05-07T12:57:30.708Z,9.50
2018-05-07T12:58:30.706Z,7.50
2018-05-07T12:59:30.759Z,6.90
2018-05-07T13:00:30.853Z,7.20
2018-05-07T13:01:30.792Z,7.80
2018-05-07T13:02:30.787Z,8.40
2018-05-07T13:03:30.823Z,9.80
2018-05-07T13:04:30.863Z,8.50
2018-05-07T13:05:30.949Z,7.00
2018-05-07T13:06:30.849Z,8.60
2018-05-07T13:07:30.873Z,8.50
2018-05-07T13:08:30.903Z,9.20
2018-05-07T13:09:30.978Z,9.80
2018-05-07T13:10:31.021Z,10.10
2018-05-07T13:11:30.984Z,9.80
2018-05-07T13:12:30.988Z,10.40
2018-05-07T13:13:30.979Z,8.40
2018-05-07T13:14:31.064Z,8.90
2018-05-07T13:15:31.118Z,9.80
2018-05-07T13:16:31.040Z,12.00
2018-05-07T13:17:31.050Z,11.80
2018-05-07T13:18:31.066Z,12.10
2018-05-07T13:19:31.194Z,7.40
2018-05-07T13:20:31.227Z,9.50
2018-05-07T13:21:31.120Z,13.10
2018-05-07T13:22:31.153Z,11.10
2018-05-07T13:23:31.193Z,9.00
2018-05-07T13:24:31.184Z,10.20
2018-05-07T13:25:31.327Z,11.10
2018-05-07T13:26:31.232Z,7.70
2018-05-07T13:27:31.235Z,8.60
2018-05-07T13:28:31.256Z,8.50
2018-05-07T13:29:31.489Z,10.60
2018-05-07T13:30:32.169Z,9.40
2018-05-07T13:31:31.931Z,9.30
2018-05-07T13:32:31.374Z,9.30
2018-05-07T13:33:32.175Z,8.50
2018-05-07T13:34:31.434Z,9.20
2018-05-07T13:35:31.500Z,7.90
2018-05-07T13:36:31.420Z,8.40
2018-05-07T13:37:31.446Z,8.20
2018-05-07T13:38:31.485Z,5.50
2018-05-07T13:39:31.557Z,10.00
2018-05-07T13:40:31.692Z,8.90
2018-05-07T13:41:31.562Z,7.70
2018-05-07T13:42:31.578Z,9.50
2018-05-07T13:43:31.596Z,11.70
2018-05-07T13:44:31.667Z,11.10
2018-05-07T13:45:31.745Z,9.80
2018-05-07T13:46:31.640Z,10.30
2018-05-07T13:47:31.678Z,8.80
2018-05-07T13:48:31.681Z,8.80
2018-05-07T13:49:31.729Z,8.30
2018-05-07T13:50:31.831Z,7.30
2018-05-07T13:51:31.754Z,8.90
2018-05-07T13:52:31.769Z,6.70
2018-05-07T13:53:31.816Z,12.00
2018-05-07T13:54:31.831Z,11.50
2018-05-07T13:55:31.938Z,7.40
2018-05-07T13:56:31.857Z,5.80
2018-05-07T13:57:31.873Z,7.00
2018-05-07T13:58:31.894Z,6.80
2018-05-07T13:59:31.955Z,6.90
2018-05-07T14:00:32.068Z,10.80
2018-05-07T14:01:31.971Z,8.50
2018-05-07T14:02:32.067Z,9.60
2018-05-07T14:03:32.018Z,8.60
2018-05-07T14:04:32.072Z,11.70
2018-05-07T14:05:32.164Z,7.80
2018-05-07T14:06:32.078Z,7.00
2018-05-07T14:07:32.100Z,7.20
2018-05-07T14:08:32.183Z,6.30
2018-05-07T14:09:32.276Z,10.30
2018-05-07T14:10:32.348Z,9.50
2018-05-07T14:11:32.194Z,8.60
2018-05-07T14:12:32.228Z,5.70
2018-05-07T14:13:32.269Z,7.10
2018-05-07T14:14:32.310Z,10.00
2018-05-07T14:15:32.400Z,5.20
2018-05-07T14:16:32.352Z,5.30
2018-05-07T14:17:32.340Z,6.10
2018-05-07T14:18:32.396Z,7.00
2018-05-07T14:19:32.414Z,5.50
2018-05-07T14:20:32.519Z,5.60
2018-05-07T14:21:32.669Z,5.80
2018-05-07T14:22:32.487Z,5.50
2018-05-07T14:23:32.526Z,9.40
2018-05-07T14:24:32.543Z,8.00
2018-05-07T14:25:32.651Z,4.90
2018-05-07T14:26:32.594Z,5.50
2018-05-07T14:27:32.591Z,4.90
2018-05-07T14:28:32.815Z,5.20
2018-05-07T14:29:32.927Z,6.90
2018-05-07T14:30:32.777Z,5.30
2018-05-07T14:31:32.916Z,5.40
2018-05-07T14:32:32.720Z,4.40
2018-05-07T14:33:32.810Z,6.00
2018-05-07T14:34:32.820Z,6.00
2018-05-07T14:35:32.910Z,6.20
2018-05-07T14:36:32.821Z,7.70
2018-05-07T14:37:32.837Z,9.60
2018-05-07T14:38:32.851Z,8.40
2018-05-07T14:39:32.988Z,7.90
2018-05-07T14:40:33.017Z,5.10
2018-05-07T14:41:32.928Z,5.60
2018-05-07T14:42:32.959Z,5.00
2018-05-07T14:43:32.976Z,5.10
2018-05-07T14:44:33.072Z,5.50
2018-05-07T14:45:33.127Z,3.80
2018-05-07T14:46:33.049Z,5.70
2018-05-07T14:47:33.090Z,12.30
2018-05-07T14:48:33.116Z,6.10
2018-05-07T14:49:33.159Z,8.70
2018-05-07T14:50:33.258Z,5.40
2018-05-07T14:51:33.204Z,5.70
2018-05-07T14:52:33.231Z,15.00
2018-05-07T14:53:33.230Z,15.60
2018-05-07T14:54:33.309Z,9.00
2018-05-07T14:55:33.392Z,6.10
2018-05-07T14:56:33.308Z,6.00
2018-05-07T14:57:33.365Z,4.80
2018-05-07T14:58:33.391Z,5.60
2018-05-07T14:59:33.415Z,7.10
2018-05-07T15:00:33.541Z,5.70
2018-05-07T15:01:33.469Z,7.50
2018-05-07T15:02:33.495Z,8.20
2018-05-07T15:03:33.523Z,9.90
2018-05-07T15:04:33.537Z,9.40
2018-05-07T15:05:33.699Z,15.00
2018-05-07T15:06:33.575Z,8.50
2018-05-07T15:07:33.604Z,5.70
2018-05-07T15:08:33.659Z,5.50
2018-05-07T15:09:33.640Z,7.80
2018-05-07T15:10:33.850Z,8.40
2018-05-07T15:11:33.692Z,7.70
2018-05-07T15:12:33.719Z,4.70
2018-05-07T15:13:33.822Z,6.20
2018-05-07T15:14:33.820Z,5.90
2018-05-07T15:15:33.990Z,5.10
2018-05-07T15:16:33.835Z,7.00
2018-05-07T15:17:33.835Z,7.10
2018-05-07T15:18:33.888Z,6.30
2018-05-07T15:19:33.882Z,4.40
2018-05-07T15:20:34.058Z,5.20
2018-05-07T15:21:33.949Z,6.10
2018-05-07T15:22:33.957Z,6.20
2018-05-07T15:23:34.003Z,6.10
2018-05-07T15:24:34.009Z,6.40
2018-05-07T15:25:34.121Z,9.30
2018-05-07T15:26:34.073Z,11.40
2018-05-07T15:27:34.068Z,8.70
2018-05-07T15:28:34.090Z,10.30
2018-05-07T15:29:34.129Z,9.90
2018-05-07T15:30:34.269Z,6.50
2018-05-07T15:31:34.197Z,8.50
2018-05-07T15:32:34.216Z,6.40
2018-05-07T15:33:34.236Z,8.60
2018-05-07T15:34:34.292Z,6.00
2018-05-07T15:35:34.400Z,4.30
2018-05-07T15:36:34.306Z,7.40
2018-05-07T15:37:34.316Z,7.10
2018-05-07T15:38:34.385Z,6.10
2018-05-07T15:39:34.399Z,5.40
2018-05-07T15:40:34.494Z,5.50
2018-05-07T15:41:34.445Z,5.80
2018-05-07T15:42:34.447Z,5.90
2018-05-07T15:43:34.472Z,4.90
2018-05-07T15:44:34.509Z,4.80
2018-05-07T15:45:34.619Z,5.10
2018-05-07T15:46:34.544Z,4.50
2018-05-07T15:47:34.560Z,5.20
2018-05-07T15:48:34.613Z,4.00
2018-05-07T15:49:34.617Z,7.90
2018-05-07T15:50:34.780Z,19.90
2018-05-07T15:51:34.685Z,13.10
2018-05-07T15:52:34.712Z,11.20
2018-05-07T15:53:34.719Z,8.50
2018-05-07T15:54:34.776Z,6.00
2018-05-07T15:55:34.940Z,7.00
2018-05-07T15:56:34.774Z,4.80
2018-05-07T15:57:34.826Z,4.20
2018-05-07T15:58:34.850Z,3.70
2018-05-07T15:59:34.878Z,4.00
2018-05-07T16:00:34.966Z,4.30
2018-05-07T16:01:34.910Z,6.00
2018-05-07T16:02:34.935Z,7.40
2018-05-07T16:03:34.939Z,4.40
2018-05-07T16:04:34.959Z,4.90
2018-05-07T16:05:35.131Z,5.40
2018-05-07T16:06:35.424Z,7.00
2018-05-07T16:07:35.037Z,5.50
2018-05-07T16:08:35.074Z,7.30
2018-05-07T16:09:35.122Z,10.20
2018-05-07T16:10:35.205Z,10.50
2018-05-07T16:11:35.109Z,9.80
2018-05-07T16:12:35.137Z,7.80
2018-05-07T16:13:35.157Z,8.00
2018-05-07T16:14:35.270Z,4.90
2018-05-07T16:15:35.312Z,4.40
2018-05-07T16:16:35.214Z,3.90
2018-05-07T16:17:35.288Z,5.10
2018-05-07T16:18:35.333Z,8.80
2018-05-07T16:19:35.324Z,9.00
2018-05-07T16:20:35.452Z,10.10
2018-05-07T16:21:35.325Z,9.80
2018-05-07T16:22:35.366Z,6.70
2018-05-07T16:23:35.619Z,7.80
2018-05-07T16:24:35.409Z,6.20
2018-05-07T16:25:35.532Z,10.80
2018-05-07T16:26:35.531Z,6.50
2018-05-07T16:27:35.476Z,5.60
2018-05-07T16:28:35.490Z,4.20
2018-05-07T16:29:35.538Z,3.40
2018-05-07T16:30:35.602Z,4.70
2018-05-07T16:31:35.534Z,5.70
2018-05-07T16:32:35.571Z,5.90
2018-05-07T16:33:35.586Z,4.30
2018-05-07T16:34:35.639Z,4.70
2018-05-07T16:35:35.792Z,5.50
2018-05-07T16:36:35.650Z,6.70
2018-05-07T16:37:35.692Z,4.70
2018-05-07T16:38:35.679Z,4.50
2018-05-07T16:39:35.759Z,6.00
2018-05-07T16:40:35.804Z,6.50
2018-05-07T16:41:35.719Z,6.80
2018-05-07T16:42:35.812Z,9.10
2018-05-07T16:43:35.958Z,8.70
2018-05-07T16:44:35.819Z,5.90
2018-05-07T16:45:35.894Z,6.30
2018-05-07T16:46:35.814Z,9.50
2018-05-07T16:47:35.833Z,8.80
2018-05-07T16:48:35.876Z,5.80
2018-05-07T16:49:35.900Z,8.40
2018-05-07T16:50:36.046Z,5.30
2018-05-07T16:51:35.944Z,4.10
2018-05-07T16:52:35.936Z,5.60
2018-05-07T16:53:35.968Z,4.60
2018-05-07T16:54:35.985Z,4.50
2018-05-07T16:55:36.152Z,4.40
2018-05-07T16:56:36.038Z,4.40
2018-05-07T16:57:36.032Z,4.30
2018-05-07T16:58:36.086Z,6.00
2018-05-07T16:59:36.135Z,8.10
2018-05-07T17:00:36.183Z,7.00
2018-05-07T17:01:36.113Z,7.10
2018-05-07T17:02:36.127Z,7.30
2018-05-07T17:03:36.147Z,6.80